Time;durP1;ratioP1;P1;durP2;ratioP2;P2;SDS_P1;SDS_P2;PMS_P1;PMS_P2;Temp;Humidity;BMP_temperature;BMP_pressure;BME280_temperature;BME280_humidity;BME280_pressure;Samples;Min_cycle;Max_cycle;Signal;HPM_P1;HPM_P2
2022/08/23 00:01:47;;;;;;;5.30;1.90;;;19.50;99.90;;;;;;5063579;28;20991;-43
2022/08/23 00:04:18;;;;;;;4.67;2.40;;;19.40;99.90;;;;;;5063486;28;20256;-39
2022/08/23 00:06:47;;;;;;;5.70;1.67;;;19.40;99.90;;;;;;5072273;28;20225;-41
2022/08/23 00:09:14;;;;;;;3.00;1.63;;;19.40;99.90;;;;;;5061728;28;20206;-40
2022/08/23 00:11:44;;;;;;;3.43;1.90;;;19.40;99.90;;;;;;5067009;28;20214;-42
2022/08/23 00:14:15;;;;;;;5.23;1.97;;;19.40;99.90;;;;;;5065763;28;20540;-38
2022/08/23 00:16:42;;;;;;;3.83;1.90;;;19.40;99.90;;;;;;5072514;28;20273;-42
2022/08/23 00:19:11;;;;;;;2.53;1.70;;;19.40;99.90;;;;;;5068821;28;20205;-40
2022/08/23 00:21:40;;;;;;;3.57;1.80;;;19.40;99.90;;;;;;5070797;28;20206;-39
2022/08/23 00:24:10;;;;;;;2.40;2.20;;;19.30;99.90;;;;;;5066517;28;20711;-40
2022/08/23 00:26:55;;;;;;;4.03;2.00;;;19.30;99.90;;;;;;5057113;28;20678;-40
2022/08/23 00:29:26;;;;;;;4.03;1.97;;;19.30;99.90;;;;;;5062750;28;20221;-39
2022/08/23 00:31:54;;;;;;;2.97;1.67;;;19.30;99.90;;;;;;5071056;28;20982;-42
2022/08/23 00:34:21;;;;;;;3.23;1.80;;;19.20;99.90;;;;;;5062332;28;20209;-38
2022/08/23 00:36:49;;;;;;;4.37;2.07;;;19.20;99.90;;;;;;5068113;28;20256;-40
2022/08/23 00:39:16;;;;;;;2.67;1.87;;;19.20;99.90;;;;;;5070949;28;20198;-40
2022/08/23 00:41:43;;;;;;;4.97;2.00;;;19.20;99.90;;;;;;5052247;28;20222;-39
2022/08/23 00:49:57;;;;;;;3.30;2.10;;;19.20;99.90;;;;;;5064983;28;20289;-39
2022/08/23 00:52:30;;;;;;;4.20;2.10;;;19.20;99.90;;;;;;5074899;28;20213;-40
2022/08/23 00:54:58;;;;;;;3.70;2.50;;;19.20;99.90;;;;;;5081987;28;20275;-41
2022/08/23 00:57:27;;;;;;;3.30;2.07;;;19.20;99.90;;;;;;5077960;28;20578;-40
2022/08/23 00:59:54;;;;;;;5.13;2.10;;;19.20;99.90;;;;;;5057463;28;20203;-39
2022/08/23 01:02:23;;;;;;;3.47;1.97;;;19.20;99.90;;;;;;5071777;28;20190;-41
2022/08/23 01:04:54;;;;;;;5.20;2.80;;;19.20;99.90;;;;;;5060313;28;20185;-41
2022/08/23 01:07:31;;;;;;;5.20;1.80;;;19.10;99.90;;;;;;5074599;28;20631;-38
2022/08/23 01:10:04;;;;;;;2.73;2.00;;;19.10;99.90;;;;;;5063233;28;20202;-40
2022/08/23 01:12:35;;;;;;;8.13;2.20;;;19.00;99.90;;;;;;5053394;28;20210;-40
2022/08/23 01:15:06;;;;;;;3.97;2.40;;;19.00;99.90;;;;;;5060920;28;20199;-39
2022/08/23 01:17:39;;;;;;;2.63;1.90;;;19.00;99.90;;;;;;5068243;28;20668;-39
2022/08/23 01:20:10;;;;;;;2.00;1.90;;;19.00;99.90;;;;;;5070962;28;20234;-39
2022/08/23 01:22:41;;;;;;;4.93;2.03;;;19.00;99.90;;;;;;5062336;28;20734;-40
2022/08/23 01:25:14;;;;;;;6.73;2.37;;;19.00;99.90;;;;;;5061867;28;20210;-39
2022/08/23 01:27:43;;;;;;;2.17;2.00;;;18.90;99.90;;;;;;5046935;28;20359;-39
2022/08/23 01:30:17;;;;;;;4.57;1.93;;;18.90;99.90;;;;;;5090574;28;20202;-40
2022/08/23 01:32:47;;;;;;;2.80;1.90;;;18.90;99.90;;;;;;5062332;28;20193;-41
2022/08/23 01:35:15;;;;;;;3.43;2.27;;;18.90;99.90;;;;;;5067658;28;20228;-39
2022/08/23 01:37:43;;;;;;;5.80;2.23;;;18.90;99.90;;;;;;5069151;28;20197;-39
2022/08/23 01:40:13;;;;;;;5.27;2.10;;;18.90;99.90;;;;;;5065988;28;20203;-40
2022/08/23 01:42:41;;;;;;;4.40;2.17;;;18.90;99.90;;;;;;5045837;28;20406;-39
2022/08/23 01:45:10;;;;;;;4.00;2.23;;;18.90;99.90;;;;;;5065667;28;20639;-42
2022/08/23 01:47:38;;;;;;;4.63;2.00;;;18.80;99.90;;;;;;5060895;28;20947;-38
2022/08/23 01:50:06;;;;;;;2.37;2.17;;;18.80;99.90;;;;;;5070121;28;20667;-39
2022/08/23 01:52:34;;;;;;;4.37;2.20;;;18.80;99.90;;;;;;5071360;28;20202;-40
2022/08/23 01:55:02;;;;;;;2.50;2.30;;;18.80;99.90;;;;;;5060964;28;20238;-42
2022/08/23 01:57:33;;;;;;;3.63;2.33;;;18.80;99.90;;;;;;5061225;28;20559;-42
2022/08/23 02:00:04;;;;;;;3.23;2.23;;;18.80;99.90;;;;;;5058830;28;20277;-42
2022/08/23 02:02:40;;;;;;;3.03;2.00;;;18.80;99.90;;;;;;5057939;28;20241;-44
2022/08/23 02:05:10;;;;;;;2.60;2.00;;;18.80;99.90;;;;;;5060893;28;20199;-41
2022/08/23 02:07:37;;;;;;;2.90;2.43;;;18.80;99.90;;;;;;5065720;28;20276;-41
2022/08/23 02:10:06;;;;;;;2.87;1.93;;;18.80;99.90;;;;;;5068220;28;20290;-43
2022/08/23 02:12:34;;;;;;;3.37;2.47;;;18.80;99.90;;;;;;5059086;28;20289;-40
2022/08/23 02:15:11;;;;;;;3.97;2.10;;;18.80;99.90;;;;;;5052146;28;20202;-40
2022/08/23 02:17:42;;;;;;;3.50;2.43;;;18.80;99.90;;;;;;5058588;28;20251;-41
2022/08/23 02:20:11;;;;;;;3.70;2.30;;;18.80;99.90;;;;;;5075665;28;20199;-41
2022/08/23 02:22:38;;;;;;;3.03;2.20;;;18.80;99.90;;;;;;5057952;28;20936;-40
2022/08/23 02:25:06;;;;;;;3.67;2.00;;;18.70;99.90;;;;;;5062431;28;20679;-42
2022/08/23 02:27:34;;;;;;;3.87;2.30;;;18.70;99.90;;;;;;5058925;28;20695;-41
2022/08/23 02:30:01;;;;;;;7.90;2.60;;;18.70;99.90;;;;;;5049943;28;20213;-43
2022/08/23 02:32:28;;;;;;;4.37;2.50;;;18.70;99.90;;;;;;5064646;28;20201;-40
2022/08/23 02:34:56;;;;;;;5.53;1.97;;;18.70;99.90;;;;;;5064082;28;20195;-40
2022/08/23 02:37:23;;;;;;;2.63;2.10;;;18.70;99.90;;;;;;5077948;28;20198;-40
2022/08/23 02:39:50;;;;;;;3.43;2.40;;;18.70;99.90;;;;;;5064978;28;20210;-41
2022/08/23 02:42:17;;;;;;;2.40;2.00;;;18.60;99.90;;;;;;5066639;28;20733;-42
2022/08/23 02:44:46;;;;;;;5.70;2.23;;;18.60;99.90;;;;;;5060819;28;20998;-40
2022/08/23 02:47:14;;;;;;;3.43;2.10;;;18.60;99.90;;;;;;5057853;28;20241;-41
2022/08/23 02:49:48;;;;;;;3.57;2.20;;;18.60;99.90;;;;;;5068428;28;20236;-40
2022/08/23 02:52:15;;;;;;;5.47;2.47;;;18.60;99.90;;;;;;5073239;28;20219;-40
2022/08/23 02:54:43;;;;;;;4.33;2.40;;;18.60;99.90;;;;;;5060399;28;20802;-42
2022/08/23 02:57:10;;;;;;;2.93;2.20;;;18.60;99.90;;;;;;5065566;28;20237;-41
2022/08/23 02:59:38;;;;;;;2.60;2.33;;;18.60;99.90;;;;;;5061326;28;20206;-40
2022/08/23 03:02:07;;;;;;;4.13;2.20;;;18.50;99.90;;;;;;5055112;28;20254;-40
2022/08/23 03:04:39;;;;;;;3.90;2.30;;;18.60;99.90;;;;;;5062203;28;20206;-41
2022/08/23 03:07:06;;;;;;;3.87;2.30;;;18.60;99.90;;;;;;5074010;28;20246;-40
2022/08/23 03:09:33;;;;;;;4.97;2.50;;;18.50;99.90;;;;;;5069833;28;20195;-42
2022/08/23 03:11:59;;;;;;;3.30;2.30;;;18.50;99.90;;;;;;5065690;28;20226;-39
2022/08/23 03:14:27;;;;;;;5.57;2.40;;;18.50;99.90;;;;;;5062267;28;20825;-40
2022/08/23 03:16:54;;;;;;;5.20;2.20;;;18.50;99.90;;;;;;5052713;28;20230;-42
2022/08/23 03:19:23;;;;;;;4.37;2.33;;;18.50;99.90;;;;;;5065650;28;20201;-40
2022/08/23 03:21:50;;;;;;;8.23;2.77;;;18.50;99.90;;;;;;5072902;28;20949;-40
2022/08/23 03:24:18;;;;;;;4.57;2.70;;;18.50;99.90;;;;;;5063656;28;20632;-40
2022/08/23 03:26:46;;;;;;;2.50;2.27;;;18.50;99.90;;;;;;5061265;28;20210;-41
2022/08/23 03:29:14;;;;;;;3.83;2.67;;;18.40;99.90;;;;;;5064835;28;20206;-39
2022/08/23 03:32:02;;;;;;;3.10;2.60;;;18.40;99.90;;;;;;5056773;28;20279;-43
2022/08/23 03:34:34;;;;;;;3.40;2.53;;;18.40;99.90;;;;;;5054071;28;20570;-44
2022/08/23 03:37:01;;;;;;;2.93;2.40;;;18.40;99.90;;;;;;5070254;28;20210;-40
2022/08/23 03:39:28;;;;;;;2.20;2.07;;;18.40;99.90;;;;;;5071251;28;20667;-40
2022/08/23 03:41:57;;;;;;;3.53;2.60;;;18.40;99.90;;;;;;5069808;28;20222;-40
2022/08/23 03:44:25;;;;;;;3.27;2.50;;;18.40;99.90;;;;;;5075306;28;20268;-41
2022/08/23 03:46:52;;;;;;;3.87;3.00;;;18.30;99.90;;;;;;5062532;28;20654;-42
2022/08/23 03:49:19;;;;;;;5.07;3.23;;;18.30;99.90;;;;;;5072272;28;20201;-42
2022/08/23 03:51:53;;;;;;;7.27;2.60;;;18.30;99.90;;;;;;5063227;28;20307;-42
2022/08/23 03:54:20;;;;;;;4.63;2.20;;;18.30;99.90;;;;;;5069707;28;20282;-40
2022/08/23 03:56:52;;;;;;;5.40;2.97;;;18.30;99.90;;;;;;5058630;28;20209;-41
2022/08/23 03:59:20;;;;;;;2.07;1.97;;;18.30;99.90;;;;;;5072997;28;20211;-38
2022/08/23 04:01:48;;;;;;;2.67;2.43;;;18.30;99.90;;;;;;5058313;28;20239;-38
2022/08/23 04:04:16;;;;;;;4.70;2.40;;;18.30;99.90;;;;;;5060210;28;20198;-40
2022/08/23 04:07:04;;;;;;;3.73;2.50;;;18.30;99.90;;;;;;5055109;28;20941;-39
2022/08/23 04:09:31;;;;;;;3.07;2.47;;;18.30;99.90;;;;;;5077333;28;20225;-39
2022/08/23 04:11:58;;;;;;;3.13;2.40;;;18.20;99.90;;;;;;5065252;28;20230;-41
2022/08/23 04:14:25;;;;;;;4.60;2.80;;;18.20;99.90;;;;;;5065348;28;20642;-40
2022/08/23 04:16:53;;;;;;;3.87;3.13;;;18.20;99.90;;;;;;5074634;28;20675;-39
2022/08/23 04:19:20;;;;;;;5.73;2.77;;;18.20;99.90;;;;;;5063179;28;24475;-39
2022/08/23 04:22:04;;;;;;;5.40;2.70;;;18.20;99.90;;;;;;5054181;28;20218;-39
2022/08/23 04:24:39;;;;;;;3.30;2.50;;;18.20;99.90;;;;;;5071783;28;20197;-39
2022/08/23 04:27:07;;;;;;;3.07;2.70;;;18.10;99.90;;;;;;5061901;28;20230;-41
2022/08/23 04:29:34;;;;;;;4.50;2.57;;;18.10;99.90;;;;;;5063393;28;20198;-43
2022/08/23 04:32:02;;;;;;;3.10;2.50;;;18.10;99.90;;;;;;5058980;28;20226;-39
2022/08/23 04:34:29;;;;;;;3.57;2.77;;;18.10;99.90;;;;;;5062369;28;20226;-41
2022/08/23 04:36:56;;;;;;;3.17;2.20;;;18.10;99.90;;;;;;5047307;28;20210;-40
2022/08/23 04:39:25;;;;;;;3.10;2.60;;;18.10;99.90;;;;;;5076344;28;20206;-41
2022/08/23 04:44:37;;;;;;;4.33;2.90;;;18.20;99.90;;;;;;5062204;28;20730;-41
2022/08/23 04:47:04;;;;;;;2.80;2.60;;;18.20;99.90;;;;;;5058823;28;20187;-43
2022/08/23 04:49:32;;;;;;;4.63;2.33;;;18.20;99.90;;;;;;5068559;28;20858;-41
2022/08/23 04:52:00;;;;;;;3.43;2.53;;;18.20;99.90;;;;;;5045582;28;20218;-40
2022/08/23 04:54:28;;;;;;;5.00;2.70;;;18.20;99.90;;;;;;5069980;28;20248;-39
2022/08/23 04:57:16;;;;;;;4.40;3.30;;;18.20;99.90;;;;;;5074066;28;20448;-40
2022/08/23 04:59:44;;;;;;;4.07;2.50;;;18.20;99.90;;;;;;5061232;28;20301;-42
2022/08/23 05:02:12;;;;;;;3.23;2.77;;;18.20;99.90;;;;;;5059843;28;20331;-40
2022/08/23 05:04:40;;;;;;;3.43;2.90;;;18.20;99.90;;;;;;5066617;28;20209;-42
2022/08/23 05:07:06;;;;;;;3.10;2.70;;;18.20;99.90;;;;;;5058780;28;20206;-41
2022/08/23 05:09:35;;;;;;;2.97;2.60;;;18.20;99.90;;;;;;5072854;28;20714;-39
2022/08/23 05:12:02;;;;;;;5.37;2.73;;;18.20;99.90;;;;;;5069618;28;20218;-41
2022/08/23 05:14:31;;;;;;;3.20;2.90;;;18.20;99.90;;;;;;5062106;28;20238;-39
2022/08/23 05:16:58;;;;;;;6.00;2.97;;;18.30;99.90;;;;;;5069818;28;20194;-41
2022/08/23 05:19:26;;;;;;;5.53;2.83;;;18.30;99.90;;;;;;5075725;28;20198;-39
2022/08/23 05:21:53;;;;;;;3.03;2.47;;;18.30;99.90;;;;;;5075045;28;20317;-40
2022/08/23 05:24:21;;;;;;;5.50;2.60;;;18.30;99.90;;;;;;5046144;28;20341;-39
2022/08/23 05:26:49;;;;;;;3.67;2.67;;;18.30;99.90;;;;;;5072468;28;20194;-42
2022/08/23 05:29:16;;;;;;;5.80;2.60;;;18.30;99.90;;;;;;5061338;28;20230;-43
2022/08/23 05:31:46;;;;;;;3.43;2.60;;;18.30;99.90;;;;;;5072940;28;20221;-40
2022/08/23 05:34:14;;;;;;;3.40;2.40;;;18.30;99.90;;;;;;5058054;28;20206;-40
2022/08/23 05:36:46;;;;;;;5.43;2.50;;;18.30;99.90;;;;;;5068909;28;20198;-40
2022/08/23 05:39:14;;;;;;;3.13;2.73;;;18.40;99.90;;;;;;5051552;28;20309;-39
2022/08/23 05:41:41;;;;;;;2.60;2.40;;;18.40;99.90;;;;;;5086129;28;20214;-38
2022/08/23 05:44:11;;;;;;;3.83;2.73;;;18.40;99.90;;;;;;5056875;28;22022;-38
2022/08/23 05:46:40;;;;;;;2.50;2.30;;;18.50;99.90;;;;;;5068500;28;20206;-40
2022/08/23 05:49:31;;;;;;;4.17;2.73;;;18.50;99.90;;;;;;5072918;28;20210;-43
2022/08/23 05:51:58;;;;;;;3.07;2.50;;;18.50;99.90;;;;;;5058563;28;20590;-40
2022/08/23 05:54:29;;;;;;;4.47;2.43;;;18.60;99.90;;;;;;5055787;28;20686;-41
2022/08/23 05:57:13;;;;;;;5.03;2.60;;;18.70;99.90;;;;;;5066117;28;20945;-40
2022/08/23 05:59:41;;;;;;;3.37;2.23;;;18.70;99.90;;;;;;5077717;28;20206;-42
2022/08/23 06:02:09;;;;;;;3.87;2.37;;;18.80;99.90;;;;;;5062587;28;20855;-40
2022/08/23 06:04:36;;;;;;;3.17;2.87;;;18.80;99.90;;;;;;5073772;28;20234;-39
2022/08/23 06:07:04;;;;;;;2.80;2.47;;;18.90;99.90;;;;;;5061361;28;20298;-41
2022/08/23 06:09:31;;;;;;;4.50;2.60;;;19.00;99.90;;;;;;5065538;28;20245;-39
2022/08/23 06:11:58;;;;;;;4.03;2.30;;;19.00;99.90;;;;;;5065276;28;20578;-42
2022/08/23 06:14:25;;;;;;;2.60;1.93;;;19.00;99.90;;;;;;5075473;28;20193;-39
2022/08/23 06:16:53;;;;;;;2.80;2.60;;;19.10;99.90;;;;;;5062921;28;20202;-40
2022/08/23 06:19:22;;;;;;;3.43;2.07;;;19.10;99.90;;;;;;5073058;28;20208;-54
2022/08/23 06:22:09;;;;;;;2.33;2.10;;;19.20;99.90;;;;;;5068419;28;20275;-55
2022/08/23 06:24:40;;;;;;;5.00;2.20;;;19.20;99.90;;;;;;5074381;28;20194;-43
2022/08/23 06:27:12;;;;;;;3.80;2.80;;;19.20;99.90;;;;;;5064045;28;20982;-41
2022/08/23 06:29:40;;;;;;;3.57;2.23;;;19.30;99.90;;;;;;5076282;28;20813;-40
2022/08/23 06:32:34;;;;;;;4.63;2.37;;;19.30;99.90;;;;;;5071623;28;20202;-43
2022/08/23 06:35:21;;;;;;;2.60;2.40;;;19.30;99.90;;;;;;5065224;28;20203;-45
2022/08/23 06:37:55;;;;;;;4.27;2.20;;;19.30;99.90;;;;;;5068447;28;20200;-41
2022/08/23 06:40:42;;;;;;;3.47;2.60;;;19.30;99.90;;;;;;5061845;28;20261;-40
2022/08/23 06:43:25;;;;;;;5.23;2.10;;;19.30;99.90;;;;;;5063677;28;20209;-40
2022/08/23 06:46:11;;;;;;;3.57;2.50;;;19.30;99.90;;;;;;5067843;28;20230;-40
2022/08/23 06:48:39;;;;;;;3.93;2.13;;;19.40;99.90;;;;;;5077526;28;20218;-41
2022/08/23 06:51:11;;;;;;;4.47;2.30;;;19.50;99.90;;;;;;5071482;28;20225;-40
2022/08/23 06:53:55;;;;;;;4.53;2.33;;;19.50;99.90;;;;;;5081122;28;20212;-40
2022/08/23 06:56:49;;;;;;;2.97;2.47;;;19.60;99.90;;;;;;5054101;28;20223;-41
2022/08/23 06:59:20;;;;;;;2.37;2.27;;;19.80;99.90;;;;;;5043895;28;20206;-40
2022/08/23 07:02:08;;;;;;;2.97;2.30;;;19.90;99.90;;;;;;5063030;28;20228;-41
2022/08/23 07:04:59;;;;;;;2.83;2.40;;;20.00;99.90;;;;;;5056714;28;20230;-43
2022/08/23 07:08:05;;;;;;;3.37;2.40;;;20.10;99.90;;;;;;5074569;28;20217;-40
2022/08/23 07:10:33;;;;;;;3.70;2.30;;;20.10;99.90;;;;;;5068627;28;20229;-41
2022/08/23 07:12:59;;;;;;;4.47;2.20;;;20.20;99.90;;;;;;5045420;28;20209;-40
2022/08/23 07:15:26;;;;;;;4.10;2.10;;;20.30;99.90;;;;;;5077549;28;20605;-43
2022/08/23 07:17:53;;;;;;;3.87;2.30;;;20.40;99.90;;;;;;5051970;28;20203;-39
2022/08/23 07:20:21;;;;;;;2.77;2.40;;;20.50;99.90;;;;;;5060545;28;20594;-40
2022/08/23 07:22:48;;;;;;;3.77;2.03;;;20.50;99.90;;;;;;5059192;28;20213;-40
2022/08/23 07:25:15;;;;;;;2.40;2.20;;;20.60;99.90;;;;;;5064885;28;20236;-41
2022/08/23 07:27:44;;;;;;;4.40;2.50;;;20.70;99.90;;;;;;5060379;28;20235;-41
2022/08/23 07:30:14;;;;;;;3.23;2.37;;;20.90;99.90;;;;;;5058814;28;20199;-40
2022/08/23 07:32:40;;;;;;;5.13;2.30;;;21.00;99.90;;;;;;5067541;28;20217;-44
2022/08/23 07:35:23;;;;;;;2.53;2.17;;;21.00;99.90;;;;;;5055612;28;20202;-43
2022/08/23 07:37:52;;;;;;;4.37;2.30;;;21.10;99.90;;;;;;5068665;28;20205;-42
2022/08/23 07:40:20;;;;;;;2.57;2.33;;;21.20;99.90;;;;;;5071355;28;20244;-41
2022/08/23 07:42:47;;;;;;;4.10;2.17;;;21.30;99.90;;;;;;5057595;28;20198;-45
2022/08/23 07:45:15;;;;;;;2.43;1.93;;;21.30;99.90;;;;;;5063687;28;20219;-42
2022/08/23 07:47:45;;;;;;;4.03;2.37;;;21.50;99.90;;;;;;5066230;28;20214;-41
2022/08/23 07:50:12;;;;;;;3.17;2.17;;;21.60;99.90;;;;;;5062482;28;20199;-43
2022/08/23 07:52:41;;;;;;;2.17;2.07;;;21.70;99.90;;;;;;5058236;28;20293;-41
2022/08/23 07:55:09;;;;;;;6.50;2.10;;;21.70;99.90;;;;;;5060612;28;21586;-42
2022/08/23 07:57:56;;;;;;;4.20;2.97;;;21.80;99.90;;;;;;5070888;28;20195;-47
2022/08/23 08:00:33;;;;;;;2.83;1.97;;;21.90;99.90;;;;;;5055290;28;21107;-42
2022/08/23 08:03:21;;;;;;;2.93;2.07;;;22.00;99.90;;;;;;5076747;28;20351;-42
2022/08/23 08:06:14;;;;;;;2.87;2.00;;;22.20;99.90;;;;;;5058761;28;20268;-43
2022/08/23 08:08:43;;;;;;;2.37;1.60;;;22.30;99.80;;;;;;5066064;28;20226;-41
2022/08/23 08:11:12;;;;;;;1.47;1.37;;;22.40;98.70;;;;;;5060862;28;20224;-44
2022/08/23 08:13:40;;;;;;;6.00;1.40;;;22.50;97.90;;;;;;5057585;28;20206;-42
2022/08/23 08:16:07;;;;;;;2.70;1.40;;;22.50;97.00;;;;;;5060669;28;20213;-42
2022/08/23 08:18:37;;;;;;;1.90;1.10;;;22.50;96.20;;;;;;5070095;28;20203;-42
2022/08/23 08:21:25;;;;;;;2.57;1.33;;;22.50;95.90;;;;;;5061868;28;20233;-42
2022/08/23 08:24:01;;;;;;;1.40;1.30;;;22.60;95.60;;;;;;5052912;28;20198;-44
2022/08/23 08:26:42;;;;;;;3.87;1.40;;;22.60;95.60;;;;;;5069732;28;20694;-44
2022/08/23 08:29:11;;;;;;;2.30;1.70;;;22.70;95.40;;;;;;5054302;28;20236;-41
2022/08/23 08:31:43;;;;;;;3.72;1.52;;;22.70;95.20;;;;;;5073966;28;20229;-41
2022/08/23 08:34:11;;;;;;;1.50;1.37;;;22.80;95.30;;;;;;5071204;28;20178;-41
2022/08/23 08:36:40;;;;;;;3.73;1.43;;;22.90;95.30;;;;;;5064147;28;20199;-40
2022/08/23 08:39:15;;;;;;;2.00;1.42;;;22.90;95.20;;;;;;5066933;28;20190;-42
2022/08/23 08:41:53;;;;;;;1.80;1.40;;;23.10;95.30;;;;;;5071579;28;20222;-43
2022/08/23 08:44:33;;;;;;;3.40;1.80;;;23.20;95.00;;;;;;5054085;28;21125;-42
2022/08/23 08:47:06;;;;;;;3.65;1.90;;;23.20;94.70;;;;;;5051378;28;20208;-44
2022/08/23 08:49:38;;;;;;;2.53;1.65;;;23.20;94.80;;;;;;5072530;28;20222;-42
2022/08/23 08:52:15;;;;;;;2.22;1.50;;;23.30;94.90;;;;;;5067282;28;20305;-44
2022/08/23 08:54:46;;;;;;;1.65;1.52;;;23.40;94.60;;;;;;5065484;28;20212;-41
2022/08/23 08:57:18;;;;;;;3.67;1.80;;;23.40;94.70;;;;;;5058416;28;20421;-41
2022/08/23 08:59:53;;;;;;;1.70;1.60;;;23.50;94.60;;;;;;5067091;28;20257;-43
2022/08/23 09:02:22;;;;;;;1.60;1.50;;;23.60;94.30;;;;;;5065332;28;20214;-40
2022/08/23 09:04:50;;;;;;;2.15;1.63;;;23.60;94.20;;;;;;5067673;28;20198;-43
2022/08/23 09:07:29;;;;;;;1.30;1.20;;;23.70;94.00;;;;;;5065677;28;20269;-43
2022/08/23 09:10:15;;;;;;;2.28;1.80;;;23.70;93.70;;;;;;5062640;28;20214;-44
2022/08/23 09:13:04;;;;;;;4.53;1.85;;;23.70;93.80;;;;;;5063669;28;20237;-43
2022/08/23 09:15:38;;;;;;;3.05;1.30;;;23.80;93.80;;;;;;5068773;28;20593;-41
2022/08/23 09:18:10;;;;;;;4.32;1.60;;;23.90;93.70;;;;;;5043890;28;20831;-42
2022/08/23 09:20:40;;;;;;;2.83;1.80;;;24.00;93.60;;;;;;5070993;28;20745;-43
2022/08/23 09:23:12;;;;;;;2.15;1.52;;;24.10;93.30;;;;;;5062146;28;20186;-42
2022/08/23 09:25:51;;;;;;;3.85;1.67;;;24.10;93.00;;;;;;5066751;28;20202;-41
2022/08/23 09:28:19;;;;;;;3.53;1.58;;;24.20;92.80;;;;;;5065547;28;20209;-42
2022/08/23 09:30:51;;;;;;;4.53;1.50;;;24.20;92.90;;;;;;5067683;28;20241;-43
2022/08/23 09:33:21;;;;;;;3.95;1.70;;;24.30;92.80;;;;;;5058773;28;20232;-43
2022/08/23 09:36:15;;;;;;;1.58;1.42;;;24.40;92.80;;;;;;5064656;28;20226;-41
2022/08/23 09:38:52;;;;;;;2.72;1.20;;;24.40;92.60;;;;;;5071998;28;20191;-43
2022/08/23 09:41:26;;;;;;;2.75;1.60;;;24.50;92.50;;;;;;5064366;28;20245;-41
2022/08/23 09:43:57;;;;;;;1.88;1.60;;;24.50;92.40;;;;;;5057903;28;20201;-42
2022/08/23 09:46:27;;;;;;;2.10;1.58;;;24.50;92.50;;;;;;5069211;28;20675;-42
2022/08/23 09:48:57;;;;;;;3.70;1.70;;;24.60;92.50;;;;;;5052815;28;20256;-43
2022/08/23 09:51:31;;;;;;;2.72;1.90;;;24.70;92.80;;;;;;5075591;28;20264;-41
2022/08/23 09:54:09;;;;;;;2.17;1.65;;;24.70;92.10;;;;;;5060906;28;20202;-43
2022/08/23 09:56:40;;;;;;;3.45;1.75;;;24.70;91.80;;;;;;5057482;28;20202;-41
2022/08/23 09:59:21;;;;;;;2.67;1.77;;;24.70;92.30;;;;;;5059073;28;21962;-44
2022/08/23 10:01:50;;;;;;;2.55;1.90;;;24.90;91.80;;;;;;5071530;28;20336;-43
2022/08/23 10:04:23;;;;;;;2.15;1.77;;;24.90;91.60;;;;;;5056680;28;20199;-43
2022/08/23 10:06:51;;;;;;;2.45;1.40;;;24.90;91.60;;;;;;5069367;28;20194;-43
2022/08/23 10:09:25;;;;;;;3.75;1.90;;;24.90;91.20;;;;;;5058805;28;20209;-43
2022/08/23 10:11:54;;;;;;;2.83;1.58;;;25.00;90.70;;;;;;5062008;28;20321;-42
2022/08/23 10:14:23;;;;;;;5.20;2.03;;;25.00;90.70;;;;;;5057149;28;20748;-42
2022/08/23 10:17:00;;;;;;;2.00;1.80;;;25.10;90.70;;;;;;5061877;28;20259;-42
2022/08/23 10:19:35;;;;;;;1.92;1.48;;;25.20;90.50;;;;;;5057594;28;20206;-42
2022/08/23 10:22:11;;;;;;;8.15;1.50;;;25.30;90.30;;;;;;5068161;28;20222;-40
2022/08/23 10:24:46;;;;;;;2.25;1.60;;;25.40;90.00;;;;;;5061410;28;20928;-41
2022/08/23 10:30:20;;;;;;;2.80;1.35;;;25.50;89.80;;;;;;5057655;28;20618;-44
2022/08/23 10:33:01;;;;;;;2.08;1.55;;;25.50;89.00;;;;;;5076473;28;20213;-42
2022/08/23 10:35:32;;;;;;;1.50;1.30;;;25.50;88.50;;;;;;5056664;28;20912;-43
2022/08/23 10:38:10;;;;;;;3.30;1.55;;;25.60;88.50;;;;;;5071207;28;20190;-43
2022/08/23 10:40:42;;;;;;;1.83;1.23;;;25.80;87.40;;;;;;5065236;28;20206;-43
2022/08/23 10:43:19;;;;;;;1.10;1.10;;;25.90;85.30;;;;;;5066313;28;20207;-43
2022/08/23 10:45:49;;;;;;;1.88;1.30;;;25.90;84.50;;;;;;5060082;28;20217;-43
2022/08/23 10:48:34;;;;;;;1.70;1.60;;;26.00;84.20;;;;;;5060551;28;20197;-42
2022/08/23 10:51:08;;;;;;;2.10;1.40;;;26.00;84.40;;;;;;5063287;28;20226;-41
2022/08/23 10:53:44;;;;;;;6.00;1.25;;;26.20;84.20;;;;;;5063338;28;20220;-42
2022/08/23 10:56:17;;;;;;;2.97;1.52;;;26.20;83.80;;;;;;5072891;28;20193;-43
2022/08/23 10:58:55;;;;;;;3.35;1.20;;;26.20;83.70;;;;;;5063479;28;20214;-43
2022/08/23 11:01:25;;;;;;;2.95;1.80;;;26.30;82.60;;;;;;5057788;28;20214;-41
2022/08/23 11:04:01;;;;;;;3.03;1.50;;;26.30;81.80;;;;;;5067589;28;20256;-41
2022/08/23 11:06:51;;;;;;;1.48;1.20;;;26.30;81.60;;;;;;5058699;28;21006;-46
2022/08/23 11:09:54;;;;;;;3.20;1.33;;;26.40;81.80;;;;;;5066559;28;20285;-42
2022/08/23 11:12:34;;;;;;;2.28;1.38;;;26.50;79.90;;;;;;5061470;28;20762;-43
2022/08/23 11:15:21;;;;;;;2.35;1.27;;;26.50;80.30;;;;;;5069467;28;20206;-42
2022/08/23 11:18:06;;;;;;;2.90;1.30;;;26.60;79.10;;;;;;5067480;28;20674;-41
2022/08/23 11:21:32;;;;;;;2.10;1.17;;;26.60;79.30;;;;;;5048687;28;20945;-41
2022/08/23 11:24:30;;;;;;;1.50;1.40;;;26.70;77.80;;;;;;4961684;28;20833;-45
2022/08/23 11:27:03;;;;;;;1.83;1.30;;;26.70;76.70;;;;;;4994150;28;20255;-43
2022/08/23 11:29:35;;;;;;;1.80;1.20;;;26.70;76.50;;;;;;5045783;28;20707;-42
2022/08/23 11:32:31;;;;;;;2.03;1.02;;;26.70;76.10;;;;;;5066742;28;20655;-41
2022/08/23 11:35:09;;;;;;;2.67;1.33;;;26.80;75.90;;;;;;5036953;28;20205;-44
2022/08/23 11:37:59;;;;;;;1.52;1.27;;;26.80;75.40;;;;;;5059654;28;20209;-41
2022/08/23 11:40:39;;;;;;;1.73;1.10;;;27.00;75.10;;;;;;5069460;28;20221;-44
2022/08/23 11:43:11;;;;;;;2.13;1.17;;;27.10;73.70;;;;;;5060242;28;20272;-43
2022/08/23 11:45:45;;;;;;;3.30;1.20;;;27.10;73.20;;;;;;5067330;28;20217;-42
2022/08/23 11:48:39;;;;;;;2.63;0.90;;;27.10;72.50;;;;;;5074598;28;20773;-44
2022/08/23 11:51:24;;;;;;;2.25;1.00;;;27.30;71.30;;;;;;5056690;28;20437;-43
2022/08/23 11:54:21;;;;;;;1.90;0.90;;;27.40;68.10;;;;;;5064619;28;20206;-45
2022/08/23 11:57:06;;;;;;;2.88;0.88;;;27.40;67.80;;;;;;5067313;28;20796;-46
2022/08/23 12:00:09;;;;;;;2.00;0.80;;;27.50;65.80;;;;;;5069901;28;20214;-45
2022/08/23 12:03:00;;;;;;;1.60;0.77;;;27.50;66.30;;;;;;5053155;28;20305;-43
2022/08/23 12:05:57;;;;;;;1.00;0.80;;;27.60;66.10;;;;;;5052276;28;20214;-48
2022/08/23 12:08:47;;;;;;;2.33;0.82;;;27.60;65.80;;;;;;5063384;28;20229;-45
2022/08/23 12:11:15;;;;;;;1.17;0.73;;;27.60;64.80;;;;;;5066044;28;20398;-47
2022/08/23 12:13:55;;;;;;;2.20;1.10;;;27.60;64.90;;;;;;5059360;28;20207;-45
2022/08/23 12:16:34;;;;;;;1.10;1.00;;;27.60;64.30;;;;;;5071009;28;20204;-45
2022/08/23 12:19:05;;;;;;;1.65;0.90;;;27.80;64.10;;;;;;5066704;28;20927;-46
2022/08/23 12:21:41;;;;;;;1.98;1.00;;;27.80;64.50;;;;;;5052464;28;20249;-45
2022/08/23 12:24:19;;;;;;;2.25;1.00;;;27.90;64.40;;;;;;5067932;28;20190;-47
2022/08/23 12:26:52;;;;;;;2.47;1.00;;;28.00;63.30;;;;;;5064923;28;20677;-46
2022/08/23 12:29:27;;;;;;;1.52;0.80;;;28.00;63.30;;;;;;5062020;28;20683;-45
2022/08/23 12:32:02;;;;;;;1.30;0.68;;;28.20;62.90;;;;;;5056814;28;20222;-44
2022/08/23 12:34:40;;;;;;;1.85;0.93;;;28.30;60.60;;;;;;5068649;28;20225;-47
2022/08/23 12:37:15;;;;;;;2.55;1.00;;;28.20;60.60;;;;;;5051850;28;20205;-49
2022/08/23 12:39:49;;;;;;;2.03;0.93;;;28.20;60.50;;;;;;5069787;28;20693;-45
2022/08/23 12:42:19;;;;;;;1.30;1.00;;;28.20;60.50;;;;;;5068880;28;20241;-44
2022/08/23 12:44:58;;;;;;;1.27;1.00;;;28.30;60.00;;;;;;5060788;28;20697;-45
2022/08/23 12:47:26;;;;;;;3.05;1.05;;;28.40;59.30;;;;;;5056128;28;20201;-46
2022/08/23 12:50:00;;;;;;;2.83;1.02;;;28.50;58.10;;;;;;5069733;28;20715;-46
2022/08/23 12:52:30;;;;;;;3.35;1.17;;;28.40;57.30;;;;;;5046776;28;20207;-44
2022/08/23 12:54:58;;;;;;;1.27;1.15;;;28.40;58.00;;;;;;5065703;28;20206;-44
2022/08/23 12:57:34;;;;;;;1.23;1.13;;;28.50;57.70;;;;;;5070266;28;20194;-47
2022/08/23 13:00:19;;;;;;;1.42;1.05;;;28.60;57.90;;;;;;5062147;28;20194;-47
2022/08/23 13:02:53;;;;;;;1.17;0.90;;;28.80;58.50;;;;;;5056922;28;20759;-46
2022/08/23 13:05:30;;;;;;;1.27;1.00;;;28.80;63.10;;;;;;5074578;28;20865;-45
2022/08/23 13:07:57;;;;;;;4.35;1.50;;;29.10;72.60;;;;;;5048446;28;20213;-47
2022/08/23 13:10:25;;;;;;;1.48;0.90;;;29.10;56.30;;;;;;5073287;28;20233;-44
2022/08/23 13:12:53;;;;;;;1.55;1.25;;;29.40;55.10;;;;;;5068222;28;20857;-48
2022/08/23 13:15:39;;;;;;;3.08;0.93;;;29.70;54.50;;;;;;5059116;28;20237;-46
2022/08/23 13:18:06;;;;;;;3.63;1.20;;;;;;;;;;5064139;28;20194;-44
2022/08/23 13:20:34;;;;;;;1.88;1.10;;;30.10;52.90;;;;;;5069101;28;20202;-44
2022/08/23 13:23:04;;;;;;;8.20;1.73;;;30.10;52.60;;;;;;5055891;28;20207;-46
2022/08/23 13:25:35;;;;;;;1.60;1.27;;;30.20;52.10;;;;;;5063233;28;20197;-48
2022/08/23 13:28:06;;;;;;;2.33;1.33;;;30.50;51.90;;;;;;5065606;28;20198;-47
2022/08/23 13:30:35;;;;;;;5.25;1.08;;;30.70;50.80;;;;;;5062580;28;20346;-44